sensor_id;sensor_type;location;lat;lon;timestamp;temperature;humidity
49579;DHT22;35483;50.828;3.228;2023-11-21T00:02:00;10.30;99.90
49579;DHT22;35483;50.828;3.228;2023-11-21T00:04:26;10.30;99.90
49579;DHT22;35483;50.828;3.228;2023-11-21T00:06:56;10.30;99.90
49579;DHT22;35483;50.828;3.228;2023-11-21T00:09:22;10.40;99.90
49579;DHT22;35483;50.828;3.228;2023-11-21T00:11:49;10.40;99.90
49579;DHT22;35483;50.828;3.228;2023-11-21T00:14:15;10.50;99.90
49579;DHT22;35483;50.828;3.228;2023-11-21T00:16:43;10.60;99.90
49579;DHT22;35483;50.828;3.228;2023-11-21T00:19:12;10.60;99.90
49579;DHT22;35483;50.828;3.228;2023-11-21T00:21:38;10.70;99.90
49579;DHT22;35483;50.828;3.228;2023-11-21T00:24:04;10.70;99.90
49579;DHT22;35483;50.828;3.228;2023-11-21T00:26:29;10.70;99.90
49579;DHT22;35483;50.828;3.228;2023-11-21T00:29:00;10.70;99.90
49579;DHT22;35483;50.828;3.228;2023-11-21T00:31:27;10.70;99.90
49579;DHT22;35483;50.828;3.228;2023-11-21T00:33:52;10.70;99.90
49579;DHT22;35483;50.828;3.228;2023-11-21T00:36:21;10.60;99.90
49579;DHT22;35483;50.828;3.228;2023-11-21T00:38:46;10.60;99.90
49579;DHT22;35483;50.828;3.228;2023-11-21T00:41:14;10.60;99.90
49579;DHT22;35483;50.828;3.228;2023-11-21T00:43:40;10.50;99.90
49579;DHT22;35483;50.828;3.228;2023-11-21T00:46:07;10.50;99.90
49579;DHT22;35483;50.828;3.228;2023-11-21T00:48:33;10.40;99.90
49579;DHT22;35483;50.828;3.228;2023-11-21T00:50:59;10.40;99.90
49579;DHT22;35483;50.828;3.228;2023-11-21T00:53:26;10.40;99.90
49579;DHT22;35483;50.828;3.228;2023-11-21T00:55:54;10.40;99.90
49579;DHT22;35483;50.828;3.228;2023-11-21T00:58:24;10.40;99.90
49579;DHT22;35483;50.828;3.228;2023-11-21T01:00:49;10.40;99.90
49579;DHT22;35483;50.828;3.228;2023-11-21T01:03:15;10.30;99.90
49579;DHT22;35483;50.828;3.228;2023-11-21T01:05:44;10.30;99.90
49579;DHT22;35483;50.828;3.228;2023-11-21T01:08:13;10.30;99.90
49579;DHT22;35483;50.828;3.228;2023-11-21T01:10:39;10.30;99.90
49579;DHT22;35483;50.828;3.228;2023-11-21T01:13:06;10.30;99.90
49579;DHT22;35483;50.828;3.228;2023-11-21T01:15:33;10.30;99.90
49579;DHT22;35483;50.828;3.228;2023-11-21T01:18:00;10.30;99.90
49579;DHT22;35483;50.828;3.228;2023-11-21T01:20:26;10.30;99.90
49579;DHT22;35483;50.828;3.228;2023-11-21T01:22:55;10.30;99.90
49579;DHT22;35483;50.828;3.228;2023-11-21T01:25:21;10.40;99.90
49579;DHT22;35483;50.828;3.228;2023-11-21T01:27:47;10.40;99.90
49579;DHT22;35483;50.828;3.228;2023-11-21T01:30:14;10.40;99.90
49579;DHT22;35483;50.828;3.228;2023-11-21T01:32:44;10.50;99.90
49579;DHT22;35483;50.828;3.228;2023-11-21T01:35:13;10.60;99.90
49579;DHT22;35483;50.828;3.228;2023-11-21T01:37:41;10.70;99.90
49579;DHT22;35483;50.828;3.228;2023-11-21T01:40:07;10.70;99.90
49579;DHT22;35483;50.828;3.228;2023-11-21T01:42:35;10.70;99.90
49579;DHT22;35483;50.828;3.228;2023-11-21T01:45:03;10.80;99.90
49579;DHT22;35483;50.828;3.228;2023-11-21T01:47:33;10.80;99.90
49579;DHT22;35483;50.828;3.228;2023-11-21T01:49:59;10.90;99.90
49579;DHT22;35483;50.828;3.228;2023-11-21T01:52:27;10.90;99.90
49579;DHT22;35483;50.828;3.228;2023-11-21T01:54:52;10.90;99.90
49579;DHT22;35483;50.828;3.228;2023-11-21T01:57:22;10.90;99.90
49579;DHT22;35483;50.828;3.228;2023-11-21T01:59:49;11.00;99.90
49579;DHT22;35483;50.828;3.228;2023-11-21T02:02:15;11.00;99.90
49579;DHT22;35483;50.828;3.228;2023-11-21T02:04:43;11.10;99.90
49579;DHT22;35483;50.828;3.228;2023-11-21T02:07:10;11.00;99.90
49579;DHT22;35483;50.828;3.228;2023-11-21T02:09:37;11.00;99.90
49579;DHT22;35483;50.828;3.228;2023-11-21T02:12:06;11.10;99.90
49579;DHT22;35483;50.828;3.228;2023-11-21T02:14:32;11.10;99.90
49579;DHT22;35483;50.828;3.228;2023-11-21T02:17:00;11.10;99.90
49579;DHT22;35483;50.828;3.228;2023-11-21T02:19:26;11.20;99.90
49579;DHT22;35483;50.828;3.228;2023-11-21T02:21:53;11.20;99.90
49579;DHT22;35483;50.828;3.228;2023-11-21T02:24:22;11.20;99.90
49579;DHT22;35483;50.828;3.228;2023-11-21T02:26:49;11.20;99.90
49579;DHT22;35483;50.828;3.228;2023-11-21T02:29:21;11.20;99.90
49579;DHT22;35483;50.828;3.228;2023-11-21T02:31:54;11.20;99.90
49579;DHT22;35483;50.828;3.228;2023-11-21T02:34:23;11.20;99.90
49579;DHT22;35483;50.828;3.228;2023-11-21T02:36:52;11.20;99.90
49579;DHT22;35483;50.828;3.228;2023-11-21T02:39:20;11.20;99.90
49579;DHT22;35483;50.828;3.228;2023-11-21T02:41:47;11.20;99.90
49579;DHT22;35483;50.828;3.228;2023-11-21T02:44:13;11.30;99.90
49579;DHT22;35483;50.828;3.228;2023-11-21T02:46:41;11.30;99.90
49579;DHT22;35483;50.828;3.228;2023-11-21T02:49:09;11.30;99.90
49579;DHT22;35483;50.828;3.228;2023-11-21T02:51:39;11.30;99.90
49579;DHT22;35483;50.828;3.228;2023-11-21T02:54:06;11.30;99.90
49579;DHT22;35483;50.828;3.228;2023-11-21T02:56:34;11.30;99.90
49579;DHT22;35483;50.828;3.228;2023-11-21T02:59:00;11.30;99.90
49579;DHT22;35483;50.828;3.228;2023-11-21T03:01:28;11.30;99.90
49579;DHT22;35483;50.828;3.228;2023-11-21T03:03:56;11.30;99.90
49579;DHT22;35483;50.828;3.228;2023-11-21T03:06:24;11.30;99.90
49579;DHT22;35483;50.828;3.228;2023-11-21T03:08:51;11.40;99.90
49579;DHT22;35483;50.828;3.228;2023-11-21T03:11:17;11.30;99.90
49579;DHT22;35483;50.828;3.228;2023-11-21T03:13:43;11.30;99.90
49579;DHT22;35483;50.828;3.228;2023-11-21T03:16:10;11.40;99.90
49579;DHT22;35483;50.828;3.228;2023-11-21T03:18:39;11.40;99.90
49579;DHT22;35483;50.828;3.228;2023-11-21T03:21:06;11.40;99.90
49579;DHT22;35483;50.828;3.228;2023-11-21T03:23:34;11.50;99.90
49579;DHT22;35483;50.828;3.228;2023-11-21T03:26:01;11.50;99.90
49579;DHT22;35483;50.828;3.228;2023-11-21T03:28:26;11.50;99.90
49579;DHT22;35483;50.828;3.228;2023-11-21T03:30:53;11.50;99.90
49579;DHT22;35483;50.828;3.228;2023-11-21T03:33:19;11.50;99.90
49579;DHT22;35483;50.828;3.228;2023-11-21T03:35:45;11.50;99.90
49579;DHT22;35483;50.828;3.228;2023-11-21T03:38:14;11.50;99.90
49579;DHT22;35483;50.828;3.228;2023-11-21T03:40:47;11.50;99.90
49579;DHT22;35483;50.828;3.228;2023-11-21T03:43:13;11.50;99.90
49579;DHT22;35483;50.828;3.228;2023-11-21T03:45:39;11.60;99.90
49579;DHT22;35483;50.828;3.228;2023-11-21T03:48:09;11.60;99.90
49579;DHT22;35483;50.828;3.228;2023-11-21T03:50:35;11.60;99.90
49579;DHT22;35483;50.828;3.228;2023-11-21T03:53:02;11.60;99.90
49579;DHT22;35483;50.828;3.228;2023-11-21T03:55:27;11.60;99.90
49579;DHT22;35483;50.828;3.228;2023-11-21T03:57:56;11.60;99.90
49579;DHT22;35483;50.828;3.228;2023-11-21T04:00:24;11.60;99.90
49579;DHT22;35483;50.828;3.228;2023-11-21T04:02:53;11.60;99.90
49579;DHT22;35483;50.828;3.228;2023-11-21T04:05:20;11.60;99.90
49579;DHT22;35483;50.828;3.228;2023-11-21T04:07:49;11.60;99.90
49579;DHT22;35483;50.828;3.228;2023-11-21T04:10:17;11.60;99.90
49579;DHT22;35483;50.828;3.228;2023-11-21T04:12:43;11.60;99.90
49579;DHT22;35483;50.828;3.228;2023-11-21T04:15:09;11.60;99.90
49579;DHT22;35483;50.828;3.228;2023-11-21T04:17:37;11.60;99.90
49579;DHT22;35483;50.828;3.228;2023-11-21T04:20:05;11.60;99.90
49579;DHT22;35483;50.828;3.228;2023-11-21T04:22:40;11.60;99.90
49579;DHT22;35483;50.828;3.228;2023-11-21T04:25:15;11.60;99.90
49579;DHT22;35483;50.828;3.228;2023-11-21T04:27:42;11.60;99.90
49579;DHT22;35483;50.828;3.228;2023-11-21T04:30:11;11.60;99.90
49579;DHT22;35483;50.828;3.228;2023-11-21T04:32:37;11.60;99.90
49579;DHT22;35483;50.828;3.228;2023-11-21T04:35:04;11.60;99.90
49579;DHT22;35483;50.828;3.228;2023-11-21T04:37:32;11.70;99.90
49579;DHT22;35483;50.828;3.228;2023-11-21T04:39:57;11.70;99.90
49579;DHT22;35483;50.828;3.228;2023-11-21T04:42:24;11.70;99.90
49579;DHT22;35483;50.828;3.228;2023-11-21T04:44:50;11.70;99.90
49579;DHT22;35483;50.828;3.228;2023-11-21T04:47:19;11.70;99.90
49579;DHT22;35483;50.828;3.228;2023-11-21T04:49:46;11.70;99.90
49579;DHT22;35483;50.828;3.228;2023-11-21T04:52:17;11.80;99.90
49579;DHT22;35483;50.828;3.228;2023-11-21T04:54:46;11.80;99.90
49579;DHT22;35483;50.828;3.228;2023-11-21T04:57:12;11.70;99.90
49579;DHT22;35483;50.828;3.228;2023-11-21T04:59:38;11.70;99.90
49579;DHT22;35483;50.828;3.228;2023-11-21T05:02:04;11.70;99.90
49579;DHT22;35483;50.828;3.228;2023-11-21T05:04:30;11.70;99.90
49579;DHT22;35483;50.828;3.228;2023-11-21T05:06:57;11.70;99.90
49579;DHT22;35483;50.828;3.228;2023-11-21T05:09:26;11.70;99.90
49579;DHT22;35483;50.828;3.228;2023-11-21T05:11:55;11.70;99.90
49579;DHT22;35483;50.828;3.228;2023-11-21T05:14:22;11.70;99.90
49579;DHT22;35483;50.828;3.228;2023-11-21T05:16:47;11.70;99.90
49579;DHT22;35483;50.828;3.228;2023-11-21T05:19:14;11.70;99.90
49579;DHT22;35483;50.828;3.228;2023-11-21T05:21:40;11.70;99.90
49579;DHT22;35483;50.828;3.228;2023-11-21T05:24:08;11.70;99.90
49579;DHT22;35483;50.828;3.228;2023-11-21T05:26:36;11.80;99.90
49579;DHT22;35483;50.828;3.228;2023-11-21T05:29:03;11.80;99.90
49579;DHT22;35483;50.828;3.228;2023-11-21T05:31:30;11.80;99.90
49579;DHT22;35483;50.828;3.228;2023-11-21T05:33:59;11.90;99.90
49579;DHT22;35483;50.828;3.228;2023-11-21T05:36:24;11.90;99.90
49579;DHT22;35483;50.828;3.228;2023-11-21T05:38:53;11.90;99.90
49579;DHT22;35483;50.828;3.228;2023-11-21T05:41:18;11.90;99.90
49579;DHT22;35483;50.828;3.228;2023-11-21T05:43:44;11.90;99.90
49579;DHT22;35483;50.828;3.228;2023-11-21T05:46:10;11.90;99.90
49579;DHT22;35483;50.828;3.228;2023-11-21T05:48:37;11.90;99.90
49579;DHT22;35483;50.828;3.228;2023-11-21T05:51:05;11.90;99.90
49579;DHT22;35483;50.828;3.228;2023-11-21T05:53:31;11.80;99.90
49579;DHT22;35483;50.828;3.228;2023-11-21T05:55:57;11.80;99.90
49579;DHT22;35483;50.828;3.228;2023-11-21T05:58:24;11.80;99.90
49579;DHT22;35483;50.828;3.228;2023-11-21T06:00:51;11.80;99.90
49579;DHT22;35483;50.828;3.228;2023-11-21T06:03:16;11.80;99.90
49579;DHT22;35483;50.828;3.228;2023-11-21T06:05:43;11.80;99.90
49579;DHT22;35483;50.828;3.228;2023-11-21T06:08:09;11.80;99.90
49579;DHT22;35483;50.828;3.228;2023-11-21T06:10:37;11.80;99.90
49579;DHT22;35483;50.828;3.228;2023-11-21T06:13:02;11.80;99.90
49579;DHT22;35483;50.828;3.228;2023-11-21T06:15:29;11.80;99.90
49579;DHT22;35483;50.828;3.228;2023-11-21T06:17:55;11.70;99.90
49579;DHT22;35483;50.828;3.228;2023-11-21T06:20:22;11.70;99.90
49579;DHT22;35483;50.828;3.228;2023-11-21T06:22:51;11.70;99.90
49579;DHT22;35483;50.828;3.228;2023-11-21T06:25:17;11.70;99.90
49579;DHT22;35483;50.828;3.228;2023-11-21T06:27:45;11.70;99.90
49579;DHT22;35483;50.828;3.228;2023-11-21T06:30:12;11.70;99.90
49579;DHT22;35483;50.828;3.228;2023-11-21T06:32:40;11.70;99.90
49579;DHT22;35483;50.828;3.228;2023-11-21T06:35:08;11.70;99.90
49579;DHT22;35483;50.828;3.228;2023-11-21T06:37:40;11.70;99.90
49579;DHT22;35483;50.828;3.228;2023-11-21T06:40:06;11.70;99.90
49579;DHT22;35483;50.828;3.228;2023-11-21T06:42:33;11.60;99.90
49579;DHT22;35483;50.828;3.228;2023-11-21T06:44:59;11.60;99.90
49579;DHT22;35483;50.828;3.228;2023-11-21T06:47:29;11.60;99.90
49579;DHT22;35483;50.828;3.228;2023-11-21T06:49:56;11.60;99.90
49579;DHT22;35483;50.828;3.228;2023-11-21T06:52:22;11.60;99.90
49579;DHT22;35483;50.828;3.228;2023-11-21T06:54:50;11.60;99.90
49579;DHT22;35483;50.828;3.228;2023-11-21T06:57:18;11.60;99.90
49579;DHT22;35483;50.828;3.228;2023-11-21T06:59:44;11.50;99.90
49579;DHT22;35483;50.828;3.228;2023-11-21T07:02:10;11.50;99.90
49579;DHT22;35483;50.828;3.228;2023-11-21T07:04:38;11.50;99.90
49579;DHT22;35483;50.828;3.228;2023-11-21T07:07:04;11.50;99.90
49579;DHT22;35483;50.828;3.228;2023-11-21T07:09:31;11.50;99.90
49579;DHT22;35483;50.828;3.228;2023-11-21T07:11:56;11.50;99.90
49579;DHT22;35483;50.828;3.228;2023-11-21T07:14:23;11.50;99.90
49579;DHT22;35483;50.828;3.228;2023-11-21T07:16:50;11.60;99.90
49579;DHT22;35483;50.828;3.228;2023-11-21T07:19:19;11.60;99.90
49579;DHT22;35483;50.828;3.228;2023-11-21T07:21:46;11.70;99.90
49579;DHT22;35483;50.828;3.228;2023-11-21T07:24:11;11.70;99.90
49579;DHT22;35483;50.828;3.228;2023-11-21T07:26:38;11.70;99.90
49579;DHT22;35483;50.828;3.228;2023-11-21T07:29:06;11.70;99.90
49579;DHT22;35483;50.828;3.228;2023-11-21T07:31:32;11.70;99.90
49579;DHT22;35483;50.828;3.228;2023-11-21T07:34:02;11.70;99.90
49579;DHT22;35483;50.828;3.228;2023-11-21T07:36:30;11.70;99.90
49579;DHT22;35483;50.828;3.228;2023-11-21T07:38:58;11.80;99.90
49579;DHT22;35483;50.828;3.228;2023-11-21T07:41:23;11.80;99.90
49579;DHT22;35483;50.828;3.228;2023-11-21T07:43:49;11.80;99.90
49579;DHT22;35483;50.828;3.228;2023-11-21T07:46:15;11.80;99.90
49579;DHT22;35483;50.828;3.228;2023-11-21T07:48:43;11.80;99.90
49579;DHT22;35483;50.828;3.228;2023-11-21T07:51:14;11.80;99.90
49579;DHT22;35483;50.828;3.228;2023-11-21T07:53:43;11.90;99.90
49579;DHT22;35483;50.828;3.228;2023-11-21T07:56:09;12.00;99.90
49579;DHT22;35483;50.828;3.228;2023-11-21T07:58:35;12.00;99.90
49579;DHT22;35483;50.828;3.228;2023-11-21T08:01:03;12.10;99.90
49579;DHT22;35483;50.828;3.228;2023-11-21T08:03:30;12.10;99.90
49579;DHT22;35483;50.828;3.228;2023-11-21T08:06:00;12.10;99.90
49579;DHT22;35483;50.828;3.228;2023-11-21T08:08:28;12.10;99.90
49579;DHT22;35483;50.828;3.228;2023-11-21T08:10:54;12.20;99.90
49579;DHT22;35483;50.828;3.228;2023-11-21T08:13:28;12.20;99.90
49579;DHT22;35483;50.828;3.228;2023-11-21T08:15:58;12.20;99.90
49579;DHT22;35483;50.828;3.228;2023-11-21T08:18:36;12.20;99.90
49579;DHT22;35483;50.828;3.228;2023-11-21T08:21:02;12.20;99.90
49579;DHT22;35483;50.828;3.228;2023-11-21T08:23:28;12.20;99.90
49579;DHT22;35483;50.828;3.228;2023-11-21T08:25:58;12.20;99.90
49579;DHT22;35483;50.828;3.228;2023-11-21T08:28:24;12.30;99.90
49579;DHT22;35483;50.828;3.228;2023-11-21T08:30:52;12.30;99.90
49579;DHT22;35483;50.828;3.228;2023-11-21T08:33:21;12.30;99.90
49579;DHT22;35483;50.828;3.228;2023-11-21T08:35:47;12.30;99.90
49579;DHT22;35483;50.828;3.228;2023-11-21T08:38:14;12.20;99.90
49579;DHT22;35483;50.828;3.228;2023-11-21T08:40:43;12.20;99.90
49579;DHT22;35483;50.828;3.228;2023-11-21T08:43:09;12.20;99.90
49579;DHT22;35483;50.828;3.228;2023-11-21T08:45:38;12.30;99.90
49579;DHT22;35483;50.828;3.228;2023-11-21T08:48:04;12.30;99.90
49579;DHT22;35483;50.828;3.228;2023-11-21T08:50:34;12.40;99.90
49579;DHT22;35483;50.828;3.228;2023-11-21T08:53:02;12.40;99.90
49579;DHT22;35483;50.828;3.228;2023-11-21T08:55:29;12.50;99.90
49579;DHT22;35483;50.828;3.228;2023-11-21T08:57:56;12.50;99.90
49579;DHT22;35483;50.828;3.228;2023-11-21T09:00:25;12.60;99.90
49579;DHT22;35483;50.828;3.228;2023-11-21T09:02:51;12.60;99.90
49579;DHT22;35483;50.828;3.228;2023-11-21T09:05:17;12.50;99.90
49579;DHT22;35483;50.828;3.228;2023-11-21T09:07:44;12.60;99.90
49579;DHT22;35483;50.828;3.228;2023-11-21T09:10:12;12.60;99.90
49579;DHT22;35483;50.828;3.228;2023-11-21T09:12:39;12.50;99.90
49579;DHT22;35483;50.828;3.228;2023-11-21T09:15:07;12.40;99.90
49579;DHT22;35483;50.828;3.228;2023-11-21T09:17:35;12.40;99.90
49579;DHT22;35483;50.828;3.228;2023-11-21T09:20:01;12.30;99.90
49579;DHT22;35483;50.828;3.228;2023-11-21T09:22:31;12.30;99.90
49579;DHT22;35483;50.828;3.228;2023-11-21T09:24:57;12.30;99.90
49579;DHT22;35483;50.828;3.228;2023-11-21T09:27:24;12.20;99.90
49579;DHT22;35483;50.828;3.228;2023-11-21T09:29:52;12.30;99.90
49579;DHT22;35483;50.828;3.228;2023-11-21T09:32:21;12.30;99.90
49579;DHT22;35483;50.828;3.228;2023-11-21T09:34:48;12.40;99.90
49579;DHT22;35483;50.828;3.228;2023-11-21T09:37:17;12.40;99.90
49579;DHT22;35483;50.828;3.228;2023-11-21T09:39:43;12.50;99.90
49579;DHT22;35483;50.828;3.228;2023-11-21T09:42:19;12.60;99.90
49579;DHT22;35483;50.828;3.228;2023-11-21T09:47:38;13.10;99.90
49579;DHT22;35483;50.828;3.228;2023-11-21T09:50:06;13.20;99.90
49579;DHT22;35483;50.828;3.228;2023-11-21T09:52:57;13.30;99.90
49579;DHT22;35483;50.828;3.228;2023-11-21T09:55:27;13.30;99.90
49579;DHT22;35483;50.828;3.228;2023-11-21T09:57:58;13.30;99.90
49579;DHT22;35483;50.828;3.228;2023-11-21T10:00:27;13.20;99.90
49579;DHT22;35483;50.828;3.228;2023-11-21T10:02:58;13.10;99.90
49579;DHT22;35483;50.828;3.228;2023-11-21T10:05:24;13.10;99.90
49579;DHT22;35483;50.828;3.228;2023-11-21T10:07:50;13.30;99.90
49579;DHT22;35483;50.828;3.228;2023-11-21T10:10:22;13.50;99.90
49579;DHT22;35483;50.828;3.228;2023-11-21T10:12:50;13.70;99.90
49579;DHT22;35483;50.828;3.228;2023-11-21T10:15:22;13.80;99.90
49579;DHT22;35483;50.828;3.228;2023-11-21T10:17:50;13.80;99.90
49579;DHT22;35483;50.828;3.228;2023-11-21T10:20:20;13.70;99.90
49579;DHT22;35483;50.828;3.228;2023-11-21T10:22:49;13.70;99.90
49579;DHT22;35483;50.828;3.228;2023-11-21T10:25:14;13.60;99.90
49579;DHT22;35483;50.828;3.228;2023-11-21T10:27:41;13.70;99.90
49579;DHT22;35483;50.828;3.228;2023-11-21T10:30:10;13.60;99.90
49579;DHT22;35483;50.828;3.228;2023-11-21T10:32:39;13.60;99.90
49579;DHT22;35483;50.828;3.228;2023-11-21T10:35:07;13.50;99.90
49579;DHT22;35483;50.828;3.228;2023-11-21T10:37:40;13.50;99.90
49579;DHT22;35483;50.828;3.228;2023-11-21T10:40:07;13.50;99.90
49579;DHT22;35483;50.828;3.228;2023-11-21T10:42:34;13.40;99.90
49579;DHT22;35483;50.828;3.228;2023-11-21T10:45:04;13.30;99.90
49579;DHT22;35483;50.828;3.228;2023-11-21T10:47:35;13.30;99.90
49579;DHT22;35483;50.828;3.228;2023-11-21T10:50:01;13.30;99.90
49579;DHT22;35483;50.828;3.228;2023-11-21T10:52:27;13.30;99.90
49579;DHT22;35483;50.828;3.228;2023-11-21T10:54:55;13.40;99.90
49579;DHT22;35483;50.828;3.228;2023-11-21T10:57:23;13.40;99.90
49579;DHT22;35483;50.828;3.228;2023-11-21T10:59:49;13.50;99.90
49579;DHT22;35483;50.828;3.228;2023-11-21T11:02:24;13.50;99.90
49579;DHT22;35483;50.828;3.228;2023-11-21T11:04:54;13.60;99.90
49579;DHT22;35483;50.828;3.228;2023-11-21T11:07:27;13.60;99.90
49579;DHT22;35483;50.828;3.228;2023-11-21T11:09:59;13.70;99.90
49579;DHT22;35483;50.828;3.228;2023-11-21T11:12:26;13.70;99.90
49579;DHT22;35483;50.828;3.228;2023-11-21T11:14:55;13.80;99.90
49579;DHT22;35483;50.828;3.228;2023-11-21T11:17:22;13.80;99.90
49579;DHT22;35483;50.828;3.228;2023-11-21T11:19:48;13.80;99.90
49579;DHT22;35483;50.828;3.228;2023-11-21T11:22:31;13.80;99.90
49579;DHT22;35483;50.828;3.228;2023-11-21T11:25:14;13.80;99.90
49579;DHT22;35483;50.828;3.228;2023-11-21T11:28:22;13.80;99.90
49579;DHT22;35483;50.828;3.228;2023-11-21T11:30:59;13.90;99.90
49579;DHT22;35483;50.828;3.228;2023-11-21T11:33:48;13.90;99.90
49579;DHT22;35483;50.828;3.228;2023-11-21T11:36:43;13.90;99.90
49579;DHT22;35483;50.828;3.228;2023-11-21T11:39:40;14.00;99.90
49579;DHT22;35483;50.828;3.228;2023-11-21T11:42:14;13.80;99.90
49579;DHT22;35483;50.828;3.228;2023-11-21T11:47:21;13.70;99.90
49579;DHT22;35483;50.828;3.228;2023-11-21T11:50:11;13.70;99.90
49579;DHT22;35483;50.828;3.228;2023-11-21T11:52:47;13.80;99.90
49579;DHT22;35483;50.828;3.228;2023-11-21T11:55:15;13.80;99.90
49579;DHT22;35483;50.828;3.228;2023-11-21T11:57:48;13.80;99.90
49579;DHT22;35483;50.828;3.228;2023-11-21T12:00:17;13.90;99.90
49579;DHT22;35483;50.828;3.228;2023-11-21T12:03:03;14.00;99.90
49579;DHT22;35483;50.828;3.228;2023-11-21T12:05:31;14.10;99.90
49579;DHT22;35483;50.828;3.228;2023-11-21T12:08:11;14.10;99.90
49579;DHT22;35483;50.828;3.228;2023-11-21T12:10:38;14.10;99.90
49579;DHT22;35483;50.828;3.228;2023-11-21T12:13:10;14.10;99.90
49579;DHT22;35483;50.828;3.228;2023-11-21T12:15:38;14.10;99.90
49579;DHT22;35483;50.828;3.228;2023-11-21T12:18:06;14.10;99.90
49579;DHT22;35483;50.828;3.228;2023-11-21T12:20:34;14.20;99.90
49579;DHT22;35483;50.828;3.228;2023-11-21T12:23:05;14.20;99.90
49579;DHT22;35483;50.828;3.228;2023-11-21T12:25:31;14.10;99.90
49579;DHT22;35483;50.828;3.228;2023-11-21T12:27:59;14.00;99.90
49579;DHT22;35483;50.828;3.228;2023-11-21T12:30:30;13.90;99.90
49579;DHT22;35483;50.828;3.228;2023-11-21T12:33:00;13.80;99.90
49579;DHT22;35483;50.828;3.228;2023-11-21T12:35:32;13.80;99.90
49579;DHT22;35483;50.828;3.228;2023-11-21T12:38:03;13.80;99.90
49579;DHT22;35483;50.828;3.228;2023-11-21T12:40:35;13.80;99.90
49579;DHT22;35483;50.828;3.228;2023-11-21T12:43:02;13.90;99.90
49579;DHT22;35483;50.828;3.228;2023-11-21T12:45:29;14.00;99.90
49579;DHT22;35483;50.828;3.228;2023-11-21T12:47:57;14.00;99.90
49579;DHT22;35483;50.828;3.228;2023-11-21T12:50:26;14.00;99.90
49579;DHT22;35483;50.828;3.228;2023-11-21T12:53:11;13.90;99.90
49579;DHT22;35483;50.828;3.228;2023-11-21T12:55:38;13.80;99.90
49579;DHT22;35483;50.828;3.228;2023-11-21T12:58:06;13.90;99.90
49579;DHT22;35483;50.828;3.228;2023-11-21T13:00:44;13.90;99.90
49579;DHT22;35483;50.828;3.228;2023-11-21T13:03:13;14.00;99.90
49579;DHT22;35483;50.828;3.228;2023-11-21T13:05:44;14.00;99.90
49579;DHT22;35483;50.828;3.228;2023-11-21T13:08:12;14.00;99.90
49579;DHT22;35483;50.828;3.228;2023-11-21T13:10:40;14.00;99.90
49579;DHT22;35483;50.828;3.228;2023-11-21T13:13:11;14.10;99.90
49579;DHT22;35483;50.828;3.228;2023-11-21T13:15:52;14.00;99.90
49579;DHT22;35483;50.828;3.228;2023-11-21T13:18:19;14.00;99.90
49579;DHT22;35483;50.828;3.228;2023-11-21T13:20:48;14.00;99.90
49579;DHT22;35483;50.828;3.228;2023-11-21T13:23:14;13.90;99.90
49579;DHT22;35483;50.828;3.228;2023-11-21T13:25:43;13.90;99.90
49579;DHT22;35483;50.828;3.228;2023-11-21T13:28:11;13.80;99.90
49579;DHT22;35483;50.828;3.228;2023-11-21T13:30:37;13.90;99.90
49579;DHT22;35483;50.828;3.228;2023-11-21T13:33:07;13.90;99.90
49579;DHT22;35483;50.828;3.228;2023-11-21T13:35:37;14.00;99.90
49579;DHT22;35483;50.828;3.228;2023-11-21T13:38:08;13.90;99.90
49579;DHT22;35483;50.828;3.228;2023-11-21T13:40:37;13.90;99.90
49579;DHT22;35483;50.828;3.228;2023-11-21T13:43:13;13.80;99.90
49579;DHT22;35483;50.828;3.228;2023-11-21T13:45:40;13.60;99.90
49579;DHT22;35483;50.828;3.228;2023-11-21T13:48:10;13.50;99.90
49579;DHT22;35483;50.828;3.228;2023-11-21T13:50:37;13.40;99.90
49579;DHT22;35483;50.828;3.228;2023-11-21T13:53:05;13.40;99.90
49579;DHT22;35483;50.828;3.228;2023-11-21T13:55:54;13.30;99.90
49579;DHT22;35483;50.828;3.228;2023-11-21T13:58:23;13.30;99.90
49579;DHT22;35483;50.828;3.228;2023-11-21T14:01:09;13.20;99.90
49579;DHT22;35483;50.828;3.228;2023-11-21T14:03:51;13.10;99.90
49579;DHT22;35483;50.828;3.228;2023-11-21T14:06:31;13.10;99.90
49579;DHT22;35483;50.828;3.228;2023-11-21T14:09:06;13.00;99.90
49579;DHT22;35483;50.828;3.228;2023-11-21T14:11:33;13.00;99.90
49579;DHT22;35483;50.828;3.228;2023-11-21T14:14:06;12.90;99.90
49579;DHT22;35483;50.828;3.228;2023-11-21T14:16:33;12.90;99.90
49579;DHT22;35483;50.828;3.228;2023-11-21T14:18:59;12.80;99.90
49579;DHT22;35483;50.828;3.228;2023-11-21T14:21:35;12.80;99.90
49579;DHT22;35483;50.828;3.228;2023-11-21T14:24:01;12.80;99.90
49579;DHT22;35483;50.828;3.228;2023-11-21T14:26:27;12.80;99.90
49579;DHT22;35483;50.828;3.228;2023-11-21T14:28:54;12.80;99.90
49579;DHT22;35483;50.828;3.228;2023-11-21T14:31:23;12.80;99.90
49579;DHT22;35483;50.828;3.228;2023-11-21T14:33:50;12.70;99.90
49579;DHT22;35483;50.828;3.228;2023-11-21T14:36:18;12.80;99.90
49579;DHT22;35483;50.828;3.228;2023-11-21T14:38:44;12.80;99.90
49579;DHT22;35483;50.828;3.228;2023-11-21T14:41:11;12.70;99.90
49579;DHT22;35483;50.828;3.228;2023-11-21T14:43:37;12.70;99.90
49579;DHT22;35483;50.828;3.228;2023-11-21T14:46:07;12.60;99.90
49579;DHT22;35483;50.828;3.228;2023-11-21T14:48:38;12.60;99.90
49579;DHT22;35483;50.828;3.228;2023-11-21T14:51:14;12.60;99.90
49579;DHT22;35483;50.828;3.228;2023-11-21T14:54:18;12.60;99.90
49579;DHT22;35483;50.828;3.228;2023-11-21T14:56:55;12.60;99.90
49579;DHT22;35483;50.828;3.228;2023-11-21T14:59:21;12.50;99.90
49579;DHT22;35483;50.828;3.228;2023-11-21T15:01:49;12.40;99.90
49579;DHT22;35483;50.828;3.228;2023-11-21T15:04:22;12.40;99.90
49579;DHT22;35483;50.828;3.228;2023-11-21T15:07:02;12.40;99.90
49579;DHT22;35483;50.828;3.228;2023-11-21T15:09:30;12.40;99.90
49579;DHT22;35483;50.828;3.228;2023-11-21T15:12:01;12.40;99.90
49579;DHT22;35483;50.828;3.228;2023-11-21T15:14:50;12.40;99.90
49579;DHT22;35483;50.828;3.228;2023-11-21T15:17:20;12.30;99.90
49579;DHT22;35483;50.828;3.228;2023-11-21T15:22:24;12.20;99.90
49579;DHT22;35483;50.828;3.228;2023-11-21T15:24:53;12.20;99.90
49579;DHT22;35483;50.828;3.228;2023-11-21T15:27:21;12.20;99.90
49579;DHT22;35483;50.828;3.228;2023-11-21T15:29:47;12.20;99.90
49579;DHT22;35483;50.828;3.228;2023-11-21T15:32:16;12.10;99.90
49579;DHT22;35483;50.828;3.228;2023-11-21T15:34:45;12.10;99.90
49579;DHT22;35483;50.828;3.228;2023-11-21T15:37:13;12.00;99.90
49579;DHT22;35483;50.828;3.228;2023-11-21T15:39:40;12.00;99.90
49579;DHT22;35483;50.828;3.228;2023-11-21T15:42:06;12.00;99.90
49579;DHT22;35483;50.828;3.228;2023-11-21T15:44:33;11.90;99.90
49579;DHT22;35483;50.828;3.228;2023-11-21T15:46:59;11.90;99.90
49579;DHT22;35483;50.828;3.228;2023-11-21T15:49:26;11.80;99.90